createdAt,value
2023-02-11T00:00:15.573Z,82.03
2023-02-11T00:02:42.395Z,80.87
2023-02-11T00:05:09.301Z,81.28
2023-02-11T00:07:36.284Z,81.92
2023-02-11T00:10:04.386Z,81.23
2023-02-11T00:12:31.362Z,80.78
2023-02-11T00:14:57.977Z,80.68
2023-02-11T00:17:24.573Z,80.57
2023-02-11T00:19:52.419Z,81.39
2023-02-11T00:22:19.001Z,81.64
2023-02-11T00:24:45.744Z,81.19
2023-02-11T00:27:12.408Z,81.21
2023-02-11T00:29:39.298Z,81.49
2023-02-11T00:32:07.169Z,81.58
2023-02-11T00:34:34.778Z,80.62
2023-02-11T00:37:01.620Z,80.98
2023-02-11T00:39:28.475Z,80.40
2023-02-11T00:41:55.154Z,81.33
2023-02-11T00:44:21.789Z,81.77
2023-02-11T00:46:48.392Z,81.62
2023-02-11T00:49:15.056Z,81.97
2023-02-11T00:51:41.948Z,80.90
2023-02-11T00:54:08.621Z,81.46
2023-02-11T00:56:35.486Z,81.28
2023-02-11T00:59:02.132Z,81.39
2023-02-11T01:01:28.771Z,81.47
2023-02-11T01:03:55.618Z,81.64
2023-02-11T01:06:22.189Z,81.48
2023-02-11T01:08:48.780Z,81.09
2023-02-11T01:11:19.647Z,81.96
2023-02-11T01:13:47.905Z,82.10
2023-02-11T01:16:14.933Z,81.45
2023-02-11T01:18:44.414Z,81.66
2023-02-11T01:21:12.009Z,82.01
2023-02-11T01:23:38.705Z,81.03
2023-02-11T01:26:05.538Z,81.28
2023-02-11T01:28:32.764Z,82.26
2023-02-11T01:31:03.359Z,81.93
2023-02-11T01:33:30.464Z,82.01
2023-02-11T01:36:01.917Z,81.79
2023-02-11T01:38:28.820Z,81.53
2023-02-11T01:41:00.406Z,81.45
2023-02-11T01:43:31.172Z,81.35
2023-02-11T01:46:34.139Z,81.45
2023-02-11T01:49:03.875Z,81.70
2023-02-11T01:51:39.766Z,81.68
2023-02-11T01:54:27.874Z,81.50
2023-02-11T01:57:17.698Z,81.59
2023-02-11T01:59:59.267Z,81.08
2023-02-11T02:02:34.501Z,80.90
2023-02-11T02:05:10.161Z,81.05
2023-02-11T02:07:52.678Z,80.58
2023-02-11T02:10:24.431Z,81.16
2023-02-11T02:12:51.093Z,81.33
2023-02-11T02:15:30.710Z,80.66
2023-02-11T02:18:01.969Z,80.68
2023-02-11T02:20:53.920Z,80.20
2023-02-11T02:23:32.396Z,79.41
2023-02-11T02:26:10.744Z,80.14
2023-02-11T02:29:19.615Z,79.81
2023-02-11T02:32:03.875Z,80.09
2023-02-11T02:34:36.332Z,80.29
2023-02-11T02:37:10.269Z,80.46
2023-02-11T02:39:37.706Z,80.48
2023-02-11T02:42:05.707Z,80.52
2023-02-11T02:44:32.478Z,81.54
2023-02-11T02:46:59.100Z,81.04
2023-02-11T02:49:25.713Z,81.68
2023-02-11T02:52:01.551Z,80.69
2023-02-11T02:54:49.721Z,81.28
2023-02-11T02:57:34.676Z,82.13
2023-02-11T03:00:17.399Z,81.33
2023-02-11T03:03:05.342Z,82.35
2023-02-11T03:05:50.230Z,82.13
2023-02-11T03:08:19.070Z,82.45
2023-02-11T03:10:49.702Z,81.29
2023-02-11T03:13:20.933Z,81.95
2023-02-11T03:15:51.137Z,81.82
2023-02-11T03:18:24.655Z,81.76
2023-02-11T03:20:54.437Z,81.92
2023-02-11T03:23:30.897Z,81.74
2023-02-11T03:26:09.153Z,82.92
2023-02-11T03:28:59.335Z,82.32
2023-02-11T03:32:07.563Z,82.12
2023-02-11T03:34:54.305Z,82.60
2023-02-11T03:37:30.856Z,82.46
2023-02-11T03:40:08.411Z,82.63
2023-02-11T03:42:52.317Z,82.71
2023-02-11T03:45:22.073Z,82.74
2023-02-11T03:48:17.436Z,82.10
2023-02-11T03:50:47.035Z,82.92
2023-02-11T03:53:15.358Z,82.94
2023-02-11T03:55:44.209Z,83.04
2023-02-11T03:58:11.310Z,82.71
2023-02-11T04:00:42.313Z,81.48
2023-02-11T04:03:10.356Z,82.03
2023-02-11T04:05:37.952Z,82.71
2023-02-11T04:08:05.411Z,82.62
2023-02-11T04:10:31.990Z,81.68
2023-02-11T04:13:00.049Z,81.66
2023-02-11T04:15:26.739Z,81.91
2023-02-11T04:17:53.327Z,82.11
2023-02-11T04:20:20.198Z,82.10
2023-02-11T04:22:46.798Z,81.92
2023-02-11T04:25:13.666Z,81.73
2023-02-11T04:27:40.469Z,81.75
2023-02-11T04:30:08.908Z,82.44
2023-02-11T04:32:35.544Z,83.02
2023-02-11T04:35:03.145Z,82.49
2023-02-11T04:37:29.881Z,83.01
2023-02-11T04:39:56.577Z,82.11
2023-02-11T04:42:24.270Z,82.23
2023-02-11T04:44:50.840Z,81.72
2023-02-11T04:47:17.458Z,82.45
2023-02-11T04:49:44.047Z,82.51
2023-02-11T04:52:11.012Z,82.75
2023-02-11T04:54:37.685Z,81.58
2023-02-11T04:57:04.338Z,81.84
2023-02-11T04:59:30.931Z,81.58
2023-02-11T05:01:57.581Z,81.46
2023-02-11T05:04:24.398Z,82.04
2023-02-11T05:06:51.107Z,81.79
2023-02-11T05:09:17.796Z,81.52
2023-02-11T05:11:44.442Z,81.55
2023-02-11T05:14:11.091Z,81.63
2023-02-11T05:16:38.069Z,81.88
2023-02-11T05:19:04.952Z,82.35
2023-02-11T05:21:31.616Z,82.29
2023-02-11T05:23:58.573Z,82.20
2023-02-11T05:26:25.408Z,83.22
2023-02-11T05:28:52.229Z,82.34
2023-02-11T05:31:18.943Z,82.21
2023-02-11T05:33:45.906Z,82.51
2023-02-11T05:36:13.505Z,82.50
2023-02-11T05:38:40.920Z,82.56
2023-02-11T05:41:07.618Z,82.37
2023-02-11T05:43:35.456Z,81.55
2023-02-11T05:46:03.205Z,82.01
2023-02-11T05:48:30.411Z,82.20
2023-02-11T05:50:57.045Z,81.59
2023-02-11T05:53:23.694Z,81.63
2023-02-11T05:55:50.704Z,81.06
2023-02-11T05:58:17.468Z,81.62
2023-02-11T06:00:44.000Z,81.23
2023-02-11T06:03:10.627Z,81.21
2023-02-11T06:05:37.319Z,80.94
2023-02-11T06:08:04.134Z,80.82
2023-02-11T06:10:30.766Z,81.16
2023-02-11T06:12:57.475Z,81.13
2023-02-11T06:15:24.099Z,80.57
2023-02-11T06:17:50.691Z,80.43
2023-02-11T06:20:17.387Z,79.83
2023-02-11T06:22:44.178Z,80.71
2023-02-11T06:25:11.483Z,81.06
2023-02-11T06:27:39.004Z,80.36
2023-02-11T06:30:07.107Z,80.49
2023-02-11T06:32:49.381Z,80.49
2023-02-11T06:35:15.978Z,80.77
2023-02-11T06:37:42.995Z,81.32
2023-02-11T06:40:11.026Z,81.68
2023-02-11T06:42:39.163Z,81.02
2023-02-11T06:45:09.187Z,81.25
2023-02-11T06:47:35.735Z,81.54
2023-02-11T06:50:02.416Z,81.20
2023-02-11T06:52:29.275Z,81.49
2023-02-11T06:54:55.964Z,81.85
2023-02-11T06:57:22.567Z,81.61
2023-02-11T06:59:49.320Z,82.38
2023-02-11T07:02:16.778Z,81.97
2023-02-11T07:04:44.589Z,82.58
2023-02-11T07:07:11.289Z,81.99
2023-02-11T07:09:37.880Z,81.70
2023-02-11T07:12:04.804Z,81.12
2023-02-11T07:14:31.437Z,81.29
2023-02-11T07:16:58.320Z,80.30
2023-02-11T07:19:24.958Z,81.06
2023-02-11T07:21:51.710Z,82.29
2023-02-11T07:24:18.249Z,82.35
2023-02-11T07:26:44.946Z,81.92
2023-02-11T07:29:11.693Z,81.37
2023-02-11T07:31:38.332Z,80.86
2023-02-11T07:34:05.025Z,79.87
2023-02-11T07:36:32.403Z,78.78
2023-02-11T07:39:00.048Z,79.57
2023-02-11T07:41:27.409Z,80.33
2023-02-11T07:43:54.620Z,80.83
2023-02-11T07:46:24.348Z,81.25
2023-02-11T07:48:51.535Z,80.85
2023-02-11T07:51:21.511Z,81.09
2023-02-11T07:53:48.466Z,80.16
2023-02-11T07:56:17.559Z,79.92
2023-02-11T07:58:44.872Z,78.72
2023-02-11T08:01:14.830Z,78.10
2023-02-11T08:03:44.953Z,77.63
2023-02-11T08:06:16.935Z,78.26
2023-02-11T08:08:43.848Z,79.79
2023-02-11T08:11:16.782Z,79.14
2023-02-11T08:13:43.823Z,78.29
2023-02-11T08:16:19.370Z,78.28
2023-02-11T08:18:46.530Z,77.54
2023-02-11T08:21:13.311Z,77.50
2023-02-11T08:23:41.569Z,77.92
2023-02-11T08:26:12.391Z,77.70
2023-02-11T08:28:41.031Z,76.30
2023-02-11T08:31:16.635Z,76.42
2023-02-11T08:33:43.826Z,75.85
2023-02-11T08:36:12.644Z,75.25
2023-02-11T08:38:39.304Z,74.93
2023-02-11T08:41:06.574Z,74.41
2023-02-11T08:43:33.452Z,74.41
2023-02-11T08:46:02.211Z,74.20
2023-02-11T08:48:29.806Z,74.94
2023-02-11T08:50:57.354Z,74.42
2023-02-11T08:53:24.514Z,73.71
2023-02-11T08:55:55.531Z,74.08
2023-02-11T08:58:22.803Z,74.22
2023-02-11T09:00:50.396Z,73.92
2023-02-11T09:03:17.640Z,74.20
2023-02-11T09:05:45.798Z,73.97
2023-02-11T09:08:13.734Z,72.87
2023-02-11T09:10:40.748Z,73.31
2023-02-11T09:13:07.888Z,73.37
2023-02-11T09:15:34.785Z,75.11
2023-02-11T09:18:03.440Z,75.24
2023-02-11T09:20:30.228Z,73.74
2023-02-11T09:22:58.623Z,73.27
2023-02-11T09:25:25.763Z,71.68
2023-02-11T09:27:53.764Z,71.31
2023-02-11T09:30:20.995Z,72.61
2023-02-11T09:32:47.867Z,71.81
2023-02-11T09:35:14.692Z,71.40
2023-02-11T09:37:41.491Z,70.94
2023-02-11T09:40:08.722Z,70.41
2023-02-11T09:43:01.730Z,69.46
2023-02-11T09:45:31.172Z,67.27
2023-02-11T09:48:06.462Z,67.81
2023-02-11T09:50:40.539Z,67.63
2023-02-11T09:53:15.551Z,66.67
2023-02-11T09:55:46.679Z,66.90
2023-02-11T09:58:25.681Z,66.11
2023-02-11T10:01:13.854Z,67.69
2023-02-11T10:04:14.578Z,66.50
2023-02-11T10:06:45.525Z,67.21
2023-02-11T10:09:53.976Z,67.33
2023-02-11T10:12:43.105Z,66.69
2023-02-11T10:15:36.368Z,64.80
2023-02-11T10:18:15.877Z,64.63
2023-02-11T10:20:48.953Z,64.89
2023-02-11T10:23:29.424Z,64.33
2023-02-11T10:25:59.050Z,64.09
2023-02-11T10:28:32.764Z,63.85
2023-02-11T10:31:15.808Z,64.11
2023-02-11T10:34:10.323Z,63.47
2023-02-11T10:36:41.162Z,64.52
2023-02-11T10:39:15.435Z,61.64
2023-02-11T10:41:46.952Z,59.82
2023-02-11T10:44:51.651Z,58.22
2023-02-11T10:47:22.688Z,58.86
2023-02-11T10:49:49.935Z,58.09
2023-02-11T10:52:25.496Z,58.72
2023-02-11T10:55:02.594Z,58.93
2023-02-11T10:57:37.043Z,57.77
2023-02-11T11:00:27.340Z,57.36
2023-02-11T11:03:00.253Z,57.30
2023-02-11T11:05:31.737Z,54.89
2023-02-11T11:08:06.878Z,53.96
2023-02-11T11:10:43.353Z,53.24
2023-02-11T11:13:37.731Z,53.49
2023-02-11T11:16:11.855Z,53.41
2023-02-11T11:18:44.398Z,52.80
2023-02-11T11:21:19.333Z,54.14
2023-02-11T11:24:01.065Z,54.37
2023-02-11T11:27:01.965Z,54.83
2023-02-11T11:29:37.382Z,55.35
2023-02-11T11:32:22.356Z,54.92
2023-02-11T11:35:21.785Z,53.88
2023-02-11T11:37:54.470Z,54.87
2023-02-11T11:40:21.933Z,55.06
2023-02-11T11:43:02.735Z,54.29
2023-02-11T11:45:29.904Z,53.93
2023-02-11T11:48:03.114Z,55.33
2023-02-11T11:50:56.181Z,55.97
2023-02-11T11:53:40.844Z,55.48
2023-02-11T11:56:14.392Z,54.57
2023-02-11T11:58:41.298Z,54.57
2023-02-11T12:01:26.508Z,55.09
2023-02-11T12:04:14.244Z,54.97
2023-02-11T12:06:46.927Z,53.59
2023-02-11T12:09:13.455Z,53.74
2023-02-11T12:11:40.139Z,52.69
2023-02-11T12:14:26.550Z,53.09
2023-02-11T12:17:30.379Z,53.24
2023-02-11T12:20:18.235Z,54.16
2023-02-11T12:23:04.034Z,53.16
2023-02-11T12:25:44.030Z,52.85
2023-02-11T12:28:31.831Z,52.36
2023-02-11T12:31:08.540Z,52.34
2023-02-11T12:33:59.726Z,53.06
2023-02-11T12:37:07.820Z,52.09
2023-02-11T12:40:13.602Z,51.14
2023-02-11T12:43:02.631Z,51.33
2023-02-11T12:45:35.139Z,51.96
2023-02-11T12:48:17.058Z,52.87
2023-02-11T12:50:59.189Z,52.53
2023-02-11T12:53:56.841Z,52.27
2023-02-11T12:56:33.324Z,52.63
2023-02-11T12:59:04.752Z,52.64
2023-02-11T13:01:39.944Z,52.42
2023-02-11T13:04:13.894Z,52.06
2023-02-11T13:06:45.163Z,53.63
2023-02-11T13:09:19.100Z,52.61
2023-02-11T13:11:52.087Z,52.26
2023-02-11T13:14:35.471Z,53.54
2023-02-11T13:17:16.163Z,53.41
2023-02-11T13:19:59.333Z,51.83
2023-02-11T13:22:41.442Z,52.10
2023-02-11T13:25:25.535Z,51.97
2023-02-11T13:28:12.242Z,52.34
2023-02-11T13:30:47.107Z,50.57
2023-02-11T13:33:20.303Z,51.10
2023-02-11T13:36:09.601Z,50.23
2023-02-11T13:38:37.596Z,50.13
2023-02-11T13:41:21.389Z,49.88
2023-02-11T13:44:22.294Z,50.96
2023-02-11T13:46:53.921Z,50.97
2023-02-11T13:49:42.439Z,50.30
2023-02-11T13:52:24.694Z,51.82
2023-02-11T13:54:54.725Z,50.91
2023-02-11T13:57:21.381Z,51.84
2023-02-11T13:59:53.194Z,52.17
2023-02-11T14:02:49.154Z,52.94
2023-02-11T14:05:42.831Z,52.88
2023-02-11T14:08:28.019Z,52.34
2023-02-11T14:11:08.452Z,52.00
2023-02-11T14:13:37.065Z,51.73
2023-02-11T14:16:20.423Z,51.71
2023-02-11T14:18:55.121Z,51.81
2023-02-11T14:21:27.902Z,51.87
2023-02-11T14:24:14.499Z,52.09
2023-02-11T14:26:50.291Z,52.74
2023-02-11T14:29:24.544Z,52.36
2023-02-11T14:32:00.554Z,51.89
2023-02-11T14:34:33.319Z,52.42
2023-02-11T14:37:33.408Z,51.62
2023-02-11T14:40:29.401Z,51.00
2023-02-11T14:43:00.689Z,50.81
2023-02-11T14:45:29.049Z,50.82
2023-02-11T14:48:04.293Z,51.21
2023-02-11T14:50:41.865Z,51.32
2023-02-11T14:53:15.561Z,50.18
2023-02-11T14:55:44.792Z,50.43
2023-02-11T14:58:18.863Z,50.73
2023-02-11T15:00:53.864Z,51.32
2023-02-11T15:03:38.694Z,50.76
2023-02-11T15:06:12.753Z,50.66
2023-02-11T15:08:45.933Z,50.31
2023-02-11T15:11:17.404Z,50.63
2023-02-11T15:13:47.663Z,50.91
2023-02-11T15:16:18.673Z,51.15
2023-02-11T15:18:55.192Z,51.71
2023-02-11T15:21:29.903Z,51.74
2023-02-11T15:24:03.736Z,52.15
2023-02-11T15:26:30.506Z,51.91
2023-02-11T15:28:58.131Z,52.07
2023-02-11T15:31:28.956Z,52.21
2023-02-11T15:33:55.706Z,51.89
2023-02-11T15:36:28.814Z,53.18
2023-02-11T15:39:18.962Z,53.14
2023-02-11T15:41:45.713Z,52.43
2023-02-11T15:44:29.248Z,54.45
2023-02-11T15:46:55.900Z,53.06
2023-02-11T15:49:24.543Z,52.78
2023-02-11T15:51:52.896Z,52.38
2023-02-11T15:54:24.029Z,52.71
2023-02-11T15:56:59.588Z,54.28
2023-02-11T15:59:38.993Z,54.87
2023-02-11T16:02:14.308Z,58.01
2023-02-11T16:04:51.237Z,58.08
2023-02-11T16:07:41.069Z,57.88
2023-02-11T16:10:29.995Z,59.83
2023-02-11T16:13:08.570Z,60.00
2023-02-11T16:15:35.196Z,60.45
2023-02-11T16:18:12.689Z,61.91
2023-02-11T16:20:39.643Z,62.75
2023-02-11T16:23:07.909Z,64.17
2023-02-11T16:25:37.942Z,65.58
2023-02-11T16:28:05.371Z,67.07
2023-02-11T16:30:40.651Z,67.31
2023-02-11T16:33:11.021Z,69.05
2023-02-11T16:35:38.289Z,69.34
2023-02-11T16:38:05.058Z,68.46
2023-02-11T16:40:31.863Z,68.93
2023-02-11T16:42:58.549Z,70.02
2023-02-11T16:45:25.335Z,70.45
2023-02-11T16:47:51.947Z,70.77
2023-02-11T16:50:23.821Z,71.14
2023-02-11T16:52:52.489Z,71.54
2023-02-11T16:55:19.177Z,71.87
2023-02-11T16:57:47.522Z,72.49
2023-02-11T17:00:16.571Z,72.03
2023-02-11T17:02:43.953Z,73.30
2023-02-11T17:05:23.047Z,73.95
2023-02-11T17:07:49.902Z,72.56
2023-02-11T17:10:19.991Z,73.01
2023-02-11T17:12:48.254Z,73.04
2023-02-11T17:15:15.423Z,73.92
2023-02-11T17:17:41.996Z,72.84
2023-02-11T17:20:11.833Z,73.05
2023-02-11T17:22:38.513Z,73.29
2023-02-11T17:25:05.308Z,72.34
2023-02-11T17:27:32.118Z,71.29
2023-02-11T17:29:58.794Z,70.56
2023-02-11T17:32:25.574Z,72.35
2023-02-11T17:34:53.566Z,72.10
2023-02-11T17:37:20.360Z,72.80
2023-02-11T17:39:49.236Z,73.75
2023-02-11T17:42:16.090Z,74.23
2023-02-11T17:44:44.374Z,73.78
2023-02-11T17:47:11.711Z,73.36
2023-02-11T17:49:39.259Z,73.71
2023-02-11T17:52:06.052Z,72.81
2023-02-11T17:54:32.704Z,73.36
2023-02-11T17:56:59.352Z,73.81
2023-02-11T17:59:26.516Z,73.90
2023-02-11T18:01:53.183Z,74.08
2023-02-11T18:04:20.034Z,74.04
2023-02-11T18:06:46.798Z,74.10
2023-02-11T18:09:13.816Z,74.73
2023-02-11T18:11:40.966Z,74.55
2023-02-11T18:14:08.506Z,75.54
2023-02-11T18:16:36.572Z,74.54
2023-02-11T18:19:03.592Z,75.18
2023-02-11T18:21:30.444Z,75.45
2023-02-11T18:23:57.307Z,75.79
2023-02-11T18:26:28.146Z,76.39
2023-02-11T18:28:57.972Z,76.22
2023-02-11T18:31:26.431Z,76.77
2023-02-11T18:33:53.810Z,76.26
2023-02-11T18:36:21.312Z,75.92
2023-02-11T18:38:48.296Z,76.13
2023-02-11T18:41:15.109Z,76.55
2023-02-11T18:43:43.060Z,76.99
2023-02-11T18:46:12.569Z,77.38
2023-02-11T18:48:39.495Z,77.56
2023-02-11T18:51:11.942Z,78.19
2023-02-11T18:53:38.724Z,78.11
2023-02-11T18:56:14.231Z,77.96
2023-02-11T18:58:40.838Z,77.66
2023-02-11T19:01:27.993Z,77.61
2023-02-11T19:03:57.393Z,77.45
2023-02-11T19:06:27.296Z,77.12
2023-02-11T19:08:59.024Z,78.18
2023-02-11T19:11:45.232Z,78.65
2023-02-11T19:14:12.101Z,78.30
2023-02-11T19:16:43.470Z,78.24
2023-02-11T19:19:10.492Z,79.10
2023-02-11T19:21:37.160Z,78.73
2023-02-11T19:24:08.351Z,77.43
2023-02-11T19:26:35.724Z,78.41
2023-02-11T19:29:02.565Z,77.97
2023-02-11T19:31:32.167Z,77.84
2023-02-11T19:33:59.777Z,77.91
2023-02-11T19:36:26.694Z,77.56
2023-02-11T19:38:53.643Z,77.73
2023-02-11T19:41:22.494Z,78.49
2023-02-11T19:43:53.617Z,78.89
2023-02-11T19:46:21.457Z,77.66
2023-02-11T19:48:49.052Z,78.41
2023-02-11T19:51:16.792Z,78.43
2023-02-11T19:53:44.703Z,78.37
2023-02-11T19:56:12.820Z,78.03
2023-02-11T19:58:41.160Z,77.73
2023-02-11T20:01:10.068Z,77.69
2023-02-11T20:03:37.175Z,78.45
2023-02-11T20:06:15.291Z,78.14
2023-02-11T20:08:41.854Z,78.86
2023-02-11T20:11:10.510Z,78.72
2023-02-11T20:13:38.614Z,77.76
2023-02-11T20:16:10.710Z,78.07
2023-02-11T20:18:37.322Z,78.98
2023-02-11T20:21:09.167Z,79.31
2023-02-11T20:23:36.408Z,78.75
2023-02-11T20:26:07.348Z,80.01
2023-02-11T20:28:34.185Z,79.07
2023-02-11T20:31:01.066Z,78.43
2023-02-11T20:33:29.862Z,78.21
2023-02-11T20:36:01.902Z,79.39
2023-02-11T20:38:28.596Z,78.21
2023-02-11T20:40:55.811Z,78.28
2023-02-11T20:43:23.101Z,78.65
2023-02-11T20:45:50.112Z,78.84
2023-02-11T20:48:16.830Z,77.79
2023-02-11T20:50:44.252Z,78.63
2023-02-11T20:53:12.016Z,80.02
2023-02-11T20:55:39.468Z,79.33
2023-02-11T20:58:07.349Z,79.73
2023-02-11T21:00:36.922Z,79.38
2023-02-11T21:03:04.671Z,78.33
2023-02-11T21:05:31.482Z,78.22
2023-02-11T21:07:58.138Z,78.66
2023-02-11T21:10:24.836Z,78.67
2023-02-11T21:12:51.411Z,78.75
2023-02-11T21:15:18.010Z,77.59
2023-02-11T21:17:44.648Z,77.92
2023-02-11T21:20:11.768Z,78.45
2023-02-11T21:22:38.364Z,78.90
2023-02-11T21:25:06.168Z,78.99
2023-02-11T21:27:33.838Z,78.56
2023-02-11T21:30:01.383Z,78.94
2023-02-11T21:32:27.980Z,79.14
2023-02-11T21:34:54.887Z,79.72
2023-02-11T21:37:23.184Z,79.18
2023-02-11T21:39:50.015Z,79.89
2023-02-11T21:42:16.734Z,79.69
2023-02-11T21:44:43.409Z,79.32
2023-02-11T21:47:10.044Z,80.05
2023-02-11T21:49:36.863Z,79.81
2023-02-11T21:52:03.553Z,80.09
2023-02-11T21:54:32.086Z,80.31
2023-02-11T21:57:00.000Z,80.82
2023-02-11T21:59:26.553Z,80.48
2023-02-11T22:01:53.080Z,80.56
2023-02-11T22:04:19.892Z,80.46
2023-02-11T22:06:46.531Z,80.27
2023-02-11T22:09:13.349Z,79.82
2023-02-11T22:11:39.957Z,79.28
2023-02-11T22:14:07.124Z,79.92
2023-02-11T22:16:33.931Z,80.05
2023-02-11T22:19:02.507Z,80.03
2023-02-11T22:21:30.076Z,80.30
2023-02-11T22:23:56.770Z,79.81
2023-02-11T22:26:25.366Z,80.24
2023-02-11T22:28:53.603Z,79.61
2023-02-11T22:31:26.370Z,80.08
2023-02-11T22:33:53.096Z,80.33
2023-02-11T22:36:25.410Z,79.99
2023-02-11T22:38:52.694Z,79.79
2023-02-11T22:41:20.505Z,80.39
2023-02-11T22:43:47.528Z,80.05
2023-02-11T22:46:16.655Z,80.12
2023-02-11T22:48:43.776Z,80.56
2023-02-11T22:51:13.084Z,81.18
2023-02-11T22:53:40.444Z,80.66
2023-02-11T22:56:09.936Z,80.72
2023-02-11T22:58:36.617Z,81.03
2023-02-11T23:01:04.633Z,80.23
2023-02-11T23:03:31.485Z,80.21
2023-02-11T23:05:59.258Z,80.75
2023-02-11T23:08:27.239Z,80.76
2023-02-11T23:10:53.940Z,80.52
2023-02-11T23:13:20.718Z,80.83
2023-02-11T23:15:47.942Z,80.47
2023-02-11T23:18:15.325Z,80.01
2023-02-11T23:20:43.632Z,80.63
2023-02-11T23:23:10.401Z,79.91
2023-02-11T23:25:43.299Z,78.13
2023-02-11T23:28:11.907Z,77.48
2023-02-11T23:30:38.823Z,78.49
2023-02-11T23:33:05.400Z,78.36
2023-02-11T23:35:32.970Z,79.19
2023-02-11T23:37:59.502Z,79.25
2023-02-11T23:40:26.082Z,78.66
2023-02-11T23:42:52.877Z,78.23
2023-02-11T23:45:19.465Z,79.00
2023-02-11T23:47:47.681Z,79.00
2023-02-11T23:50:14.522Z,79.68
2023-02-11T23:52:41.524Z,78.55
2023-02-11T23:55:09.021Z,78.59
2023-02-11T23:57:36.367Z,79.35
